createdAt,value
2022-08-22T00:01:20.318Z,7.88
2022-08-22T00:02:53.828Z,8.52
2022-08-22T00:03:01.919Z,5.65
2022-08-22T00:03:04.491Z,6.30
2022-08-22T00:04:33.400Z,8.95
2022-08-22T00:07:13.168Z,7.80
2022-08-22T00:09:57.346Z,7.13
2022-08-22T00:12:41.773Z,7.15
2022-08-22T00:15:42.581Z,9.10
2022-08-22T00:18:25.181Z,6.88
2022-08-22T00:21:10.122Z,8.98
2022-08-22T00:23:53.968Z,7.68
2022-08-22T00:26:54.403Z,7.93
2022-08-22T00:29:30.395Z,9.95
2022-08-22T00:32:23.906Z,8.02
2022-08-22T00:35:22.616Z,9.00
2022-08-22T00:38:14.257Z,8.52
2022-08-22T00:40:49.930Z,8.07
2022-08-22T00:43:31.542Z,8.60
2022-08-22T00:48:54.883Z,8.68
2022-08-22T00:51:49.764Z,8.63
2022-08-22T00:54:34.461Z,8.90
2022-08-22T00:57:19.558Z,10.07
2022-08-22T01:00:13.170Z,8.70
2022-08-22T01:03:17.039Z,8.82
2022-08-22T01:06:31.684Z,8.63
2022-08-22T01:09:05.052Z,8.45
2022-08-22T01:11:50.217Z,8.65
2022-08-22T01:14:52.548Z,9.30
2022-08-22T01:17:53.331Z,8.85
2022-08-22T01:20:37.604Z,9.77
2022-08-22T01:23:25.305Z,10.48
2022-08-22T01:26:30.738Z,9.85
2022-08-22T01:29:15.965Z,8.27
2022-08-22T01:32:19.773Z,9.63
2022-08-22T01:35:24.711Z,9.43
2022-08-22T01:38:31.299Z,9.55
2022-08-22T01:41:45.646Z,10.95
2022-08-22T01:44:59.813Z,8.98
2022-08-22T01:47:48.119Z,9.20
2022-08-22T01:50:36.619Z,11.65
2022-08-22T01:53:20.181Z,10.15
2022-08-22T01:56:11.406Z,10.07
2022-08-22T01:58:45.180Z,11.18
2022-08-22T02:01:46.788Z,9.43
2022-08-22T02:04:43.399Z,9.35
2022-08-22T02:07:40.118Z,8.93
2022-08-22T02:10:40.162Z,9.02
2022-08-22T02:13:12.916Z,8.80
2022-08-22T02:15:39.688Z,10.52
2022-08-22T02:18:06.183Z,9.90
2022-08-22T02:20:39.263Z,10.02
2022-08-22T02:23:19.519Z,10.13
2022-08-22T02:25:50.961Z,10.38
2022-08-22T02:28:37.912Z,10.27
2022-08-22T02:31:37.274Z,10.30
2022-08-22T02:34:16.905Z,9.73
2022-08-22T02:36:53.750Z,9.38
2022-08-22T02:39:37.423Z,9.30
2022-08-22T02:42:18.870Z,13.35
2022-08-22T02:45:16.221Z,9.10
2022-08-22T02:48:00.666Z,9.60
2022-08-22T02:50:46.529Z,10.40
2022-08-22T02:53:44.408Z,9.15
2022-08-22T02:56:33.245Z,9.88
2022-08-22T02:59:23.193Z,9.85
2022-08-22T03:01:51.166Z,9.70
2022-08-22T03:04:32.677Z,11.88
2022-08-22T03:07:27.608Z,12.02
2022-08-22T03:10:37.966Z,10.43
2022-08-22T03:13:33.522Z,11.68
2022-08-22T03:16:08.367Z,11.23
2022-08-22T03:18:49.719Z,10.48
2022-08-22T03:21:37.391Z,11.88
2022-08-22T03:24:29.080Z,10.05
2022-08-22T03:27:09.510Z,11.57
2022-08-22T03:29:40.450Z,10.73
2022-08-22T03:32:11.767Z,11.68
2022-08-22T03:34:54.472Z,10.73
2022-08-22T03:37:35.853Z,10.82
2022-08-22T03:40:20.130Z,11.43
2022-08-22T03:42:55.927Z,11.32
2022-08-22T03:45:41.099Z,9.95
2022-08-22T03:48:38.744Z,11.70
2022-08-22T03:51:22.256Z,10.10
2022-08-22T03:54:07.437Z,12.15
2022-08-22T03:56:58.901Z,10.27
2022-08-22T04:00:20.854Z,10.25
2022-08-22T04:03:11.843Z,10.75
2022-08-22T04:05:58.098Z,9.87
2022-08-22T04:08:44.804Z,10.73
2022-08-22T04:11:31.607Z,10.23
2022-08-22T04:14:24.207Z,10.07
2022-08-22T04:17:24.620Z,12.05
2022-08-22T04:20:05.322Z,10.65
2022-08-22T04:22:52.579Z,10.50
2022-08-22T04:25:27.804Z,10.10
2022-08-22T04:28:12.944Z,11.82
2022-08-22T04:30:50.420Z,10.95
2022-08-22T04:33:30.335Z,11.13
2022-08-22T04:36:05.318Z,12.80
2022-08-22T04:38:48.684Z,11.02
2022-08-22T04:41:48.960Z,10.55
2022-08-22T04:44:33.765Z,10.32
2022-08-22T04:47:08.233Z,10.27
2022-08-22T04:49:41.707Z,10.77
2022-08-22T04:52:08.136Z,10.70
2022-08-22T04:54:48.430Z,10.77
2022-08-22T04:57:19.445Z,10.82
2022-08-22T04:59:46.175Z,11.88
2022-08-22T05:02:22.212Z,11.60
2022-08-22T05:05:13.611Z,12.23
2022-08-22T05:07:52.065Z,12.23
2022-08-22T05:10:23.229Z,12.75
2022-08-22T05:12:55.455Z,12.32
2022-08-22T05:15:27.617Z,11.73
2022-08-22T05:17:58.010Z,12.23
2022-08-22T05:20:27.567Z,12.30
2022-08-22T05:23:05.875Z,12.38
2022-08-22T05:25:38.396Z,11.80
2022-08-22T05:28:15.714Z,12.30
2022-08-22T05:30:45.849Z,12.35
2022-08-22T05:33:22.818Z,12.75
2022-08-22T05:35:59.089Z,11.63
2022-08-22T05:38:31.494Z,11.65
2022-08-22T05:41:16.960Z,13.75
2022-08-22T05:43:45.159Z,11.98
2022-08-22T05:46:24.614Z,12.60
2022-08-22T05:49:00.092Z,12.20
2022-08-22T05:51:35.551Z,12.45
2022-08-22T05:54:34.493Z,12.38
2022-08-22T05:57:23.743Z,12.20
2022-08-22T05:59:57.716Z,12.63
2022-08-22T06:02:44.817Z,12.85
2022-08-22T06:05:12.396Z,13.43
2022-08-22T06:07:46.368Z,13.13
2022-08-22T06:10:31.141Z,13.30
2022-08-22T06:13:06.670Z,13.85
2022-08-22T06:15:53.464Z,13.85
2022-08-22T06:18:24.568Z,13.65
2022-08-22T06:20:55.936Z,13.63
2022-08-22T06:23:30.102Z,13.60
2022-08-22T06:26:00.060Z,13.98
2022-08-22T06:28:32.707Z,15.55
2022-08-22T06:31:02.175Z,15.50
2022-08-22T06:33:32.827Z,13.60
2022-08-22T06:36:25.676Z,14.60
2022-08-22T06:39:21.086Z,15.00
2022-08-22T06:41:52.623Z,16.13
2022-08-22T06:46:55.373Z,13.80
2022-08-22T06:49:24.665Z,15.40
2022-08-22T06:51:51.863Z,14.18
2022-08-22T06:54:23.884Z,14.23
2022-08-22T06:56:53.126Z,18.77
2022-08-22T06:59:25.881Z,14.55
2022-08-22T07:02:05.046Z,20.30
2022-08-22T07:04:31.872Z,17.00
2022-08-22T07:07:01.236Z,15.27
2022-08-22T07:09:35.481Z,15.25
2022-08-22T07:12:10.958Z,15.05
2022-08-22T07:14:43.589Z,17.58
2022-08-22T07:17:18.683Z,17.02
2022-08-22T07:19:53.951Z,16.35
2022-08-22T07:22:28.239Z,18.38
2022-08-22T07:25:00.671Z,16.50
2022-08-22T07:28:00.349Z,18.23
2022-08-22T07:30:55.057Z,17.38
2022-08-22T07:33:40.779Z,19.05
2022-08-22T07:36:46.785Z,18.15
2022-08-22T07:39:19.390Z,19.20
2022-08-22T07:42:11.269Z,17.75
2022-08-22T07:45:01.555Z,17.42
2022-08-22T07:47:50.181Z,19.33
2022-08-22T07:50:23.261Z,17.38
2022-08-22T07:52:51.837Z,18.52
2022-08-22T07:55:26.191Z,17.55
2022-08-22T07:57:59.093Z,17.90
2022-08-22T08:00:28.914Z,18.83
2022-08-22T08:03:02.648Z,19.67
2022-08-22T08:05:32.749Z,18.15
2022-08-22T08:08:07.724Z,19.85
2022-08-22T08:10:39.567Z,20.42
2022-08-22T08:13:12.930Z,20.45
2022-08-22T08:15:42.976Z,20.60
2022-08-22T08:18:19.107Z,20.60
2022-08-22T08:20:54.547Z,22.40
2022-08-22T08:23:23.381Z,21.20
2022-08-22T08:26:06.956Z,19.25
2022-08-22T08:28:41.281Z,26.85
2022-08-22T08:31:17.861Z,19.58
2022-08-22T08:33:47.391Z,19.92
2022-08-22T08:36:29.126Z,21.20
2022-08-22T08:41:37.329Z,21.05
2022-08-22T08:44:30.575Z,21.17
2022-08-22T08:47:35.710Z,20.83
2022-08-22T08:50:29.236Z,22.33
2022-08-22T08:53:26.560Z,20.25
2022-08-22T08:56:47.304Z,20.13
2022-08-22T08:59:40.407Z,17.58
2022-08-22T09:02:23.508Z,17.25
2022-08-22T09:05:08.588Z,17.42
2022-08-22T09:08:13.596Z,16.25
2022-08-22T09:10:58.624Z,15.80
2022-08-22T09:13:50.290Z,13.73
2022-08-22T09:19:19.751Z,11.57
2022-08-22T09:22:07.387Z,12.02
2022-08-22T09:24:59.457Z,11.60
2022-08-22T09:27:26.261Z,11.43
2022-08-22T09:30:14.203Z,10.93
2022-08-22T09:32:59.420Z,9.10
2022-08-22T09:35:46.948Z,11.30
2022-08-22T09:38:48.269Z,11.23
2022-08-22T09:41:35.420Z,12.77
2022-08-22T09:44:19.696Z,12.25
2022-08-22T09:46:54.968Z,12.43
2022-08-22T09:49:48.237Z,9.73
2022-08-22T09:52:34.205Z,9.82
2022-08-22T09:55:35.442Z,10.13
2022-08-22T09:58:18.077Z,11.02
2022-08-22T10:00:55.584Z,11.20
2022-08-22T10:03:33.046Z,10.10
2022-08-22T10:06:13.227Z,10.18
2022-08-22T10:08:53.693Z,10.68
2022-08-22T10:11:32.135Z,10.02
2022-08-22T10:14:08.091Z,12.18
2022-08-22T10:16:43.057Z,8.73
2022-08-22T10:19:32.300Z,10.27
2022-08-22T10:22:08.433Z,9.20
2022-08-22T10:24:43.698Z,10.48
2022-08-22T10:27:19.715Z,9.68
2022-08-22T10:30:08.039Z,9.52
2022-08-22T10:32:59.128Z,11.85
2022-08-22T10:35:51.464Z,11.63
2022-08-22T10:38:27.838Z,10.20
2022-08-22T10:41:19.651Z,10.20
2022-08-22T10:44:04.057Z,10.50
2022-08-22T10:46:38.943Z,7.50
2022-08-22T10:49:19.616Z,8.73
2022-08-22T10:51:56.754Z,11.52
2022-08-22T10:54:51.155Z,9.82
2022-08-22T10:57:52.992Z,8.70
2022-08-22T11:00:58.252Z,9.05
2022-08-22T11:03:45.512Z,9.93
2022-08-22T11:06:33.448Z,13.60
2022-08-22T11:09:19.813Z,8.77
2022-08-22T11:12:12.590Z,7.32
2022-08-22T11:14:59.558Z,10.15
2022-08-22T11:17:31.017Z,8.57
2022-08-22T11:20:21.519Z,7.63
2022-08-22T11:23:05.445Z,8.45
2022-08-22T11:25:56.745Z,8.88
2022-08-22T11:28:50.900Z,10.07
2022-08-22T11:31:55.429Z,7.50
2022-08-22T11:34:37.077Z,6.10
2022-08-22T11:37:11.775Z,7.90
2022-08-22T11:40:18.924Z,7.60
2022-08-22T11:43:07.538Z,6.20
2022-08-22T11:45:49.306Z,6.68
2022-08-22T11:48:21.921Z,6.18
2022-08-22T11:51:24.847Z,8.40
2022-08-22T11:54:19.692Z,8.10
2022-08-22T11:57:03.050Z,10.23
2022-08-22T11:59:55.522Z,7.90
2022-08-22T12:03:00.055Z,10.70
2022-08-22T12:05:34.350Z,6.47
2022-08-22T12:08:11.326Z,7.85
2022-08-22T12:10:48.839Z,6.15
2022-08-22T12:13:35.049Z,7.22
2022-08-22T12:16:02.009Z,7.15
2022-08-22T12:18:52.914Z,7.20
2022-08-22T12:21:24.369Z,6.55
2022-08-22T12:24:11.177Z,7.45
2022-08-22T12:27:07.828Z,8.00
2022-08-22T12:30:03.349Z,8.25
2022-08-22T12:32:49.050Z,6.97
2022-08-22T12:35:45.953Z,6.82
2022-08-22T12:38:46.929Z,9.40
2022-08-22T12:41:46.649Z,7.38
2022-08-22T12:44:24.688Z,5.95
2022-08-22T12:47:14.150Z,8.38
2022-08-22T12:49:54.024Z,6.75
2022-08-22T12:52:55.918Z,6.07
2022-08-22T12:55:33.658Z,7.13
2022-08-22T12:58:11.636Z,6.40
2022-08-22T13:00:45.093Z,6.10
2022-08-22T13:03:35.281Z,6.72
2022-08-22T13:06:26.884Z,7.90
2022-08-22T13:08:54.254Z,6.10
2022-08-22T13:11:23.588Z,6.85
2022-08-22T13:14:00.341Z,5.93
2022-08-22T13:16:49.038Z,6.07
2022-08-22T13:19:26.995Z,5.85
2022-08-22T13:22:02.394Z,6.68
2022-08-22T13:24:55.060Z,7.40
2022-08-22T13:27:29.812Z,10.85
2022-08-22T13:30:05.687Z,5.85
2022-08-22T13:32:45.378Z,6.57
2022-08-22T13:35:30.201Z,6.05
2022-08-22T13:38:05.564Z,7.80
2022-08-22T13:40:33.961Z,6.07
2022-08-22T13:43:11.288Z,8.02
2022-08-22T13:45:41.856Z,7.40
2022-08-22T13:48:12.611Z,6.07
2022-08-22T13:51:04.620Z,7.20
2022-08-22T13:53:50.065Z,8.35
2022-08-22T13:56:44.137Z,8.77
2022-08-22T13:59:50.184Z,6.50
2022-08-22T14:02:37.299Z,6.40
2022-08-22T14:05:12.223Z,6.60
2022-08-22T14:08:12.469Z,7.57
2022-08-22T14:10:45.765Z,7.13
2022-08-22T14:13:29.623Z,7.68
2022-08-22T14:16:06.406Z,9.35
2022-08-22T14:18:46.126Z,7.55
2022-08-22T14:21:33.569Z,6.28
2022-08-22T14:24:25.893Z,7.20
2022-08-22T14:26:57.918Z,7.10
2022-08-22T14:29:28.323Z,7.70
2022-08-22T14:32:31.001Z,6.35
2022-08-22T14:35:25.455Z,6.32
2022-08-22T14:38:32.622Z,6.75
2022-08-22T14:41:05.463Z,5.97
2022-08-22T14:43:31.996Z,5.93
2022-08-22T14:46:07.408Z,5.82
2022-08-22T14:48:42.905Z,8.32
2022-08-22T14:51:21.221Z,8.27
2022-08-22T14:53:48.246Z,7.32
2022-08-22T14:56:27.999Z,6.20
2022-08-22T14:59:02.232Z,7.68
2022-08-22T15:01:32.892Z,6.10
2022-08-22T15:04:09.538Z,8.43
2022-08-22T15:06:47.692Z,8.65
2022-08-22T15:09:37.729Z,7.15
2022-08-22T15:12:30.588Z,7.13
2022-08-22T15:15:01.241Z,5.70
2022-08-22T15:17:32.188Z,7.90
2022-08-22T15:20:11.782Z,6.72
2022-08-22T15:22:40.851Z,7.22
2022-08-22T15:25:17.255Z,6.63
2022-08-22T15:28:14.225Z,6.63
2022-08-22T15:31:06.784Z,5.65
2022-08-22T15:33:39.892Z,6.32
2022-08-22T15:36:21.346Z,7.47
2022-08-22T15:38:52.094Z,6.53
2022-08-22T15:41:21.579Z,6.88
2022-08-22T15:43:52.279Z,8.00
2022-08-22T15:46:21.718Z,7.70
2022-08-22T15:49:11.751Z,6.93
2022-08-22T15:51:50.348Z,6.18
2022-08-22T15:54:41.573Z,6.90
2022-08-22T15:57:31.460Z,6.20
2022-08-22T16:00:01.919Z,5.97
2022-08-22T16:02:41.678Z,5.68
2022-08-22T16:05:11.254Z,5.90
2022-08-22T16:07:40.003Z,5.57
2022-08-22T16:10:12.960Z,10.20
2022-08-22T16:12:45.856Z,6.05
2022-08-22T16:15:54.163Z,5.63
2022-08-22T16:18:48.891Z,5.30
2022-08-22T16:21:16.464Z,5.78
2022-08-22T16:23:56.606Z,7.03
2022-08-22T16:26:30.589Z,6.13
2022-08-22T16:29:03.124Z,6.13
2022-08-22T16:31:34.780Z,5.78
2022-08-22T16:34:26.493Z,5.65
2022-08-22T16:37:14.916Z,5.95
2022-08-22T16:39:48.322Z,6.45
2022-08-22T16:42:23.897Z,7.05
2022-08-22T16:45:02.615Z,7.68
2022-08-22T16:47:37.377Z,8.10
2022-08-22T16:50:16.161Z,7.63
2022-08-22T16:53:07.719Z,11.80
2022-08-22T16:55:35.927Z,5.97
2022-08-22T16:58:56.861Z,7.43
2022-08-22T17:01:56.565Z,7.55
2022-08-22T17:04:55.511Z,5.60
2022-08-22T17:07:51.530Z,5.75
2022-08-22T17:10:27.966Z,5.50
2022-08-22T17:13:33.046Z,5.75
2022-08-22T17:16:13.236Z,6.07
2022-08-22T17:18:40.127Z,7.07
2022-08-22T17:21:17.670Z,5.80
2022-08-22T17:23:59.206Z,5.55
2022-08-22T17:27:02.959Z,5.88
2022-08-22T17:29:47.556Z,7.00
2022-08-22T17:32:32.318Z,7.35
2022-08-22T17:35:12.476Z,7.30
2022-08-22T17:37:57.287Z,5.97
2022-08-22T17:41:00.923Z,5.88
2022-08-22T17:43:48.530Z,6.57
2022-08-22T17:46:48.234Z,6.93
2022-08-22T17:49:45.352Z,5.57
2022-08-22T17:52:22.286Z,5.45
2022-08-22T17:54:58.944Z,6.03
2022-08-22T17:57:34.105Z,5.97
2022-08-22T18:00:11.216Z,5.93
2022-08-22T18:02:44.481Z,7.22
2022-08-22T18:05:20.337Z,7.15
2022-08-22T18:08:01.291Z,8.88
2022-08-22T18:10:31.392Z,6.65
2022-08-22T18:13:10.164Z,6.67
2022-08-22T18:16:01.072Z,6.13
2022-08-22T18:18:37.692Z,7.47
2022-08-22T18:21:04.240Z,5.90
2022-08-22T18:23:40.713Z,6.45
2022-08-22T18:26:38.861Z,6.93
2022-08-22T18:29:16.831Z,6.32
2022-08-22T18:31:51.561Z,7.38
2022-08-22T18:34:26.024Z,8.15
2022-08-22T18:37:03.983Z,7.45
2022-08-22T18:39:45.448Z,5.90
2022-08-22T18:42:47.694Z,5.40
2022-08-22T18:45:43.892Z,6.03
2022-08-22T18:48:21.322Z,7.38
2022-08-22T18:50:49.242Z,6.55
2022-08-22T18:53:39.075Z,5.38
2022-08-22T18:56:13.326Z,4.80
2022-08-22T18:58:45.836Z,5.32
2022-08-22T19:01:50.717Z,6.90
2022-08-22T19:04:44.215Z,5.45
2022-08-22T19:07:36.925Z,6.63
2022-08-22T19:10:29.408Z,6.22
2022-08-22T19:13:01.680Z,7.63
2022-08-22T19:15:46.798Z,7.90
2022-08-22T19:18:30.802Z,6.13
2022-08-22T19:21:37.688Z,5.95
2022-08-22T19:24:08.325Z,5.88
2022-08-22T19:26:44.875Z,5.55
2022-08-22T19:29:15.926Z,6.00
2022-08-22T19:31:56.191Z,7.70
2022-08-22T19:34:29.249Z,9.40
2022-08-22T19:37:33.106Z,6.93
2022-08-22T19:40:11.983Z,6.70
2022-08-22T19:42:41.334Z,5.85
2022-08-22T19:45:20.153Z,7.47
2022-08-22T19:47:55.664Z,5.43
2022-08-22T19:50:22.311Z,7.30
2022-08-22T19:52:57.897Z,5.82
2022-08-22T19:55:27.651Z,6.35
2022-08-22T19:58:12.777Z,6.45
2022-08-22T20:00:55.035Z,6.93
2022-08-22T20:03:53.103Z,6.20
2022-08-22T20:06:47.806Z,5.82
2022-08-22T20:09:33.787Z,5.55
2022-08-22T20:12:19.707Z,8.13
2022-08-22T20:14:47.499Z,6.45
2022-08-22T20:17:33.909Z,7.45
2022-08-22T20:20:18.555Z,5.72
2022-08-22T20:22:52.714Z,6.47
2022-08-22T20:25:42.930Z,5.90
2022-08-22T20:28:45.728Z,5.30
2022-08-22T20:31:20.779Z,8.52
2022-08-22T20:33:53.579Z,8.90
2022-08-22T20:36:27.641Z,7.50
2022-08-22T20:39:01.728Z,9.52
2022-08-22T20:41:36.864Z,6.57
2022-08-22T20:44:19.310Z,7.30
2022-08-22T20:46:55.348Z,6.65
2022-08-22T20:49:31.532Z,7.10
2022-08-22T20:52:01.557Z,5.75
2022-08-22T20:54:32.415Z,5.80
2022-08-22T20:57:01.292Z,5.80
2022-08-22T20:59:30.041Z,8.63
2022-08-22T21:02:04.071Z,8.00
2022-08-22T21:04:42.700Z,6.85
2022-08-22T21:07:09.512Z,6.82
2022-08-22T21:09:54.758Z,6.25
2022-08-22T21:12:22.301Z,7.53
2022-08-22T21:14:48.814Z,6.70
2022-08-22T21:17:21.684Z,7.38
2022-08-22T21:19:48.547Z,6.03
2022-08-22T21:22:18.900Z,7.15
2022-08-22T21:24:45.650Z,9.30
2022-08-22T21:27:28.819Z,5.53
2022-08-22T21:29:56.406Z,6.75
2022-08-22T21:32:32.790Z,8.05
2022-08-22T21:34:59.847Z,7.32
2022-08-22T21:37:45.776Z,7.30
2022-08-22T21:40:23.814Z,8.32
2022-08-22T21:43:12.026Z,7.95
2022-08-22T21:45:38.472Z,8.73
2022-08-22T21:48:38.501Z,7.38
2022-08-22T21:51:22.370Z,9.43
2022-08-22T21:53:48.983Z,5.90
2022-08-22T21:59:50.660Z,6.72
2022-08-22T22:02:36.422Z,8.23
2022-08-22T22:05:11.319Z,7.25
2022-08-22T22:07:40.750Z,7.85
2022-08-22T22:10:09.259Z,5.97
2022-08-22T22:12:39.197Z,8.50
2022-08-22T22:15:06.165Z,8.07
2022-08-22T22:17:32.662Z,9.95
2022-08-22T22:19:59.160Z,7.80
2022-08-22T22:22:25.663Z,7.30
2022-08-22T22:24:52.167Z,8.25
2022-08-22T22:27:18.748Z,6.10
2022-08-22T22:29:45.517Z,6.30
2022-08-22T22:32:12.005Z,6.22
2022-08-22T22:34:39.108Z,8.57
2022-08-22T22:37:08.147Z,6.50
2022-08-22T22:39:36.049Z,8.60
2022-08-22T22:42:03.548Z,7.63
2022-08-22T22:44:30.669Z,6.15
2022-08-22T22:46:58.807Z,7.35
2022-08-22T22:49:25.300Z,7.93
2022-08-22T22:51:51.930Z,6.63
2022-08-22T22:54:18.501Z,6.50
2022-08-22T22:56:48.005Z,7.57
2022-08-22T22:59:14.934Z,7.07
2022-08-22T23:02:01.264Z,6.78
2022-08-22T23:04:29.000Z,6.57
2022-08-22T23:06:55.756Z,6.80
2022-08-22T23:09:23.860Z,6.82
2022-08-22T23:12:06.465Z,7.40
2022-08-22T23:14:33.877Z,10.45
2022-08-22T23:17:01.316Z,7.68
2022-08-22T23:19:28.811Z,8.20
2022-08-22T23:21:57.592Z,7.75
2022-08-22T23:24:25.626Z,6.75
2022-08-22T23:26:52.458Z,8.35
2022-08-22T23:29:19.171Z,8.43
2022-08-22T23:31:55.081Z,8.10
2022-08-22T23:34:24.824Z,7.47
2022-08-22T23:36:53.655Z,7.97
2022-08-22T23:39:22.607Z,6.15
2022-08-22T23:41:49.708Z,8.50
2022-08-22T23:44:20.023Z,6.78
2022-08-22T23:46:46.968Z,6.85
2022-08-22T23:49:14.293Z,6.88
2022-08-22T23:51:41.888Z,7.97
2022-08-22T23:54:08.600Z,9.98
2022-08-22T23:56:40.541Z,8.27
2022-08-22T23:59:11.491Z,6.85
